createdAt,value
2018-11-26T00:01:28.555Z,5.15
2018-11-26T00:03:56.872Z,5.20
2018-11-26T00:06:25.180Z,5.17
2018-11-26T00:08:53.493Z,5.12
2018-11-26T00:11:29.956Z,5.14
2018-11-26T00:13:58.356Z,5.17
2018-11-26T00:16:26.665Z,5.15
2018-11-26T00:18:54.992Z,5.20
2018-11-26T00:21:23.324Z,5.18
2018-11-26T00:23:51.649Z,5.13
2018-11-26T00:26:20.144Z,5.22
2018-11-26T00:28:48.666Z,5.18
2018-11-26T00:31:18.204Z,5.21
2018-11-26T00:33:46.513Z,5.15
2018-11-26T00:36:14.817Z,5.16
2018-11-26T00:38:43.156Z,5.32
2018-11-26T00:41:11.448Z,5.12
2018-11-26T00:43:39.765Z,5.16
2018-11-26T00:46:08.071Z,5.04
2018-11-26T00:48:36.506Z,5.13
2018-11-26T00:51:05.521Z,5.15
2018-11-26T00:53:33.868Z,5.27
2018-11-26T00:56:02.208Z,5.11
2018-11-26T00:58:30.546Z,5.12
2018-11-26T01:00:58.900Z,5.10
2018-11-26T01:03:27.185Z,5.16
2018-11-26T01:05:55.508Z,5.09
2018-11-26T01:08:23.824Z,5.07
2018-11-26T01:10:52.160Z,5.09
2018-11-26T01:13:20.456Z,5.10
2018-11-26T01:15:48.784Z,5.10
2018-11-26T01:18:17.261Z,5.10
2018-11-26T01:20:45.737Z,5.04
2018-11-26T01:23:14.200Z,5.04
2018-11-26T01:25:42.519Z,5.05
2018-11-26T01:28:10.824Z,5.00
2018-11-26T01:30:39.152Z,4.98
2018-11-26T01:33:07.618Z,5.03
2018-11-26T01:35:35.945Z,4.95
2018-11-26T01:38:04.260Z,4.96
2018-11-26T01:40:37.892Z,4.99
2018-11-26T01:43:06.684Z,5.00
2018-11-26T01:45:34.991Z,4.93
2018-11-26T01:48:03.312Z,4.95
2018-11-26T01:50:32.060Z,4.95
2018-11-26T01:53:00.596Z,4.93
2018-11-26T01:55:28.934Z,4.99
2018-11-26T01:57:57.565Z,4.98
2018-11-26T02:00:27.596Z,4.99
2018-11-26T02:02:55.949Z,4.91
2018-11-26T02:05:24.294Z,4.94
2018-11-26T02:07:53.013Z,4.92
2018-11-26T02:10:21.764Z,4.89
2018-11-26T02:12:50.513Z,4.84
2018-11-26T02:15:41.661Z,4.89
2018-11-26T02:18:10.393Z,4.88
2018-11-26T02:20:38.763Z,4.91
2018-11-26T02:23:07.327Z,4.91
2018-11-26T02:25:35.685Z,4.86
2018-11-26T02:28:04.465Z,4.82
2018-11-26T02:30:32.772Z,4.89
2018-11-26T02:33:01.432Z,4.85
2018-11-26T02:35:29.734Z,4.93
2018-11-26T02:37:58.044Z,4.97
2018-11-26T02:40:32.084Z,4.94
2018-11-26T02:43:00.409Z,4.85
2018-11-26T02:45:28.940Z,4.84
2018-11-26T02:47:57.269Z,4.91
2018-11-26T02:50:25.588Z,4.91
2018-11-26T02:52:53.917Z,4.95
2018-11-26T02:55:22.223Z,4.88
2018-11-26T02:57:50.800Z,4.87
2018-11-26T03:00:19.141Z,4.91
2018-11-26T03:02:47.478Z,4.94
2018-11-26T03:05:23.718Z,4.90
2018-11-26T03:07:52.089Z,4.85
2018-11-26T03:10:20.389Z,4.92
2018-11-26T03:12:48.740Z,4.89
2018-11-26T03:15:17.013Z,4.87
2018-11-26T03:17:45.349Z,4.96
2018-11-26T03:20:13.676Z,4.86
2018-11-26T03:22:41.996Z,4.90
2018-11-26T03:25:11.120Z,4.89
2018-11-26T03:27:39.469Z,4.90
2018-11-26T03:30:11.878Z,4.99
2018-11-26T03:32:40.332Z,4.94
2018-11-26T03:35:09.624Z,4.88
2018-11-26T03:37:37.960Z,4.90
2018-11-26T03:40:10.557Z,4.82
2018-11-26T03:42:38.837Z,4.78
2018-11-26T03:45:09.474Z,4.90
2018-11-26T03:47:37.917Z,4.77
2018-11-26T03:50:06.313Z,4.76
2018-11-26T03:52:34.650Z,4.79
2018-11-26T03:55:02.980Z,4.74
2018-11-26T03:57:31.280Z,4.80
2018-11-26T03:59:59.609Z,4.80
2018-11-26T04:02:27.922Z,4.85
2018-11-26T04:04:56.241Z,4.85
2018-11-26T04:07:24.524Z,4.79
2018-11-26T04:09:52.832Z,4.84
2018-11-26T04:12:21.123Z,4.87
2018-11-26T04:14:49.433Z,4.87
2018-11-26T04:17:17.790Z,4.76
2018-11-26T04:19:46.108Z,4.77
2018-11-26T04:22:14.395Z,4.78
2018-11-26T04:24:42.716Z,4.75
2018-11-26T04:27:11.006Z,4.76
2018-11-26T04:32:18.224Z,4.79
2018-11-26T04:34:46.708Z,4.83
2018-11-26T04:37:15.168Z,4.74
2018-11-26T04:39:43.673Z,4.83
2018-11-26T04:42:11.981Z,4.75
2018-11-26T04:44:40.636Z,4.73
2018-11-26T04:47:09.116Z,4.75
2018-11-26T04:49:37.592Z,4.71
2018-11-26T04:52:06.577Z,4.72
2018-11-26T04:54:34.904Z,4.61
2018-11-26T04:57:03.534Z,4.62
2018-11-26T04:59:31.939Z,4.63
2018-11-26T05:02:00.544Z,4.63
2018-11-26T05:04:28.848Z,4.67
2018-11-26T05:06:57.501Z,4.59
2018-11-26T05:09:25.952Z,4.54
2018-11-26T05:11:54.963Z,4.58
2018-11-26T05:14:23.292Z,4.57
2018-11-26T05:16:51.943Z,4.57
2018-11-26T05:19:20.229Z,4.53
2018-11-26T05:21:48.936Z,4.66
2018-11-26T05:24:17.252Z,4.63
2018-11-26T05:26:45.578Z,4.60
2018-11-26T05:29:14.237Z,4.58
2018-11-26T05:31:42.822Z,4.59
2018-11-26T05:34:11.201Z,4.59
2018-11-26T05:36:40.364Z,4.55
2018-11-26T05:39:09.281Z,4.59
2018-11-26T05:41:37.657Z,4.59
2018-11-26T05:44:06.039Z,4.59
2018-11-26T05:46:34.428Z,4.52
2018-11-26T05:49:02.753Z,4.51
2018-11-26T05:51:31.075Z,4.52
2018-11-26T05:53:59.377Z,4.53
2018-11-26T05:56:27.699Z,4.56
2018-11-26T05:58:56.020Z,4.51
2018-11-26T06:01:24.332Z,4.57
2018-11-26T06:03:52.675Z,4.52
2018-11-26T06:06:21.034Z,4.49
2018-11-26T06:08:49.322Z,4.49
2018-11-26T06:11:17.628Z,4.59
2018-11-26T06:13:45.929Z,4.59
2018-11-26T06:16:14.301Z,4.57
2018-11-26T06:18:42.585Z,4.52
2018-11-26T06:21:11.148Z,4.43
2018-11-26T06:23:39.456Z,4.40
2018-11-26T06:26:07.799Z,4.41
2018-11-26T06:28:36.098Z,4.46
2018-11-26T06:31:04.824Z,4.38
2018-11-26T06:33:33.177Z,4.40
2018-11-26T06:36:01.481Z,4.47
2018-11-26T06:38:29.828Z,4.46
2018-11-26T06:40:58.143Z,4.44
2018-11-26T06:43:26.452Z,4.44
2018-11-26T06:45:55.205Z,4.42
2018-11-26T06:48:23.545Z,4.45
2018-11-26T06:50:51.849Z,4.33
2018-11-26T06:53:20.188Z,4.44
2018-11-26T06:55:48.482Z,4.38
2018-11-26T06:58:16.792Z,4.43
2018-11-26T07:00:45.093Z,4.46
2018-11-26T07:03:13.414Z,4.35
2018-11-26T07:05:41.717Z,4.42
2018-11-26T07:08:10.054Z,4.39
2018-11-26T07:10:38.376Z,4.38
2018-11-26T07:13:06.704Z,4.33
2018-11-26T07:15:35.012Z,4.38
2018-11-26T07:18:03.449Z,4.36
2018-11-26T07:20:31.756Z,4.33
2018-11-26T07:23:00.092Z,4.37
2018-11-26T07:25:28.420Z,4.44
2018-11-26T07:27:56.757Z,4.35
2018-11-26T07:30:27.100Z,4.36
2018-11-26T07:32:55.853Z,4.35
2018-11-26T07:35:24.177Z,4.42
2018-11-26T07:37:52.851Z,4.44
2018-11-26T07:40:22.478Z,4.49
2018-11-26T07:42:59.866Z,4.42
2018-11-26T07:45:28.205Z,4.40
2018-11-26T07:47:56.548Z,4.42
2018-11-26T07:50:24.892Z,4.51
2018-11-26T07:52:53.278Z,4.43
2018-11-26T07:55:22.028Z,4.52
2018-11-26T07:57:50.516Z,4.55
2018-11-26T08:00:20.038Z,4.62
2018-11-26T08:02:48.652Z,4.63
2018-11-26T08:05:18.008Z,4.67
2018-11-26T08:07:46.321Z,4.71
2018-11-26T08:10:16.615Z,4.70
2018-11-26T08:12:45.511Z,4.76
2018-11-26T08:15:16.700Z,4.67
2018-11-26T08:17:45.065Z,4.75
2018-11-26T08:20:13.428Z,4.95
2018-11-26T08:22:41.770Z,5.00
2018-11-26T08:25:11.117Z,4.92
2018-11-26T08:27:39.860Z,4.74
2018-11-26T08:30:11.377Z,4.72
2018-11-26T08:32:39.960Z,4.76
2018-11-26T08:35:08.941Z,4.70
2018-11-26T08:37:37.273Z,4.74
2018-11-26T08:40:11.625Z,4.82
2018-11-26T08:42:40.064Z,4.89
2018-11-26T08:45:14.556Z,4.84
2018-11-26T08:47:42.915Z,4.93
2018-11-26T08:50:11.265Z,4.96
2018-11-26T08:52:39.554Z,4.89
2018-11-26T08:55:08.566Z,4.85
2018-11-26T08:57:36.862Z,4.97
2018-11-26T09:00:05.708Z,4.92
2018-11-26T09:02:38.169Z,4.90
2018-11-26T09:05:15.448Z,4.98
2018-11-26T09:07:43.773Z,4.98
2018-11-26T09:10:12.103Z,4.95
2018-11-26T09:12:40.708Z,5.07
2018-11-26T09:15:10.237Z,5.24
2018-11-26T09:17:38.633Z,5.15
2018-11-26T09:20:09.513Z,5.18
2018-11-26T09:22:37.860Z,5.34
2018-11-26T09:25:09.436Z,5.32
2018-11-26T09:27:37.796Z,5.23
2018-11-26T09:30:11.268Z,5.18
2018-11-26T09:32:39.820Z,5.23
2018-11-26T09:35:10.073Z,5.23
2018-11-26T09:37:38.860Z,5.14
2018-11-26T09:40:09.088Z,5.19
2018-11-26T09:42:37.836Z,5.14
2018-11-26T09:45:08.596Z,5.19
2018-11-26T09:47:36.931Z,5.26
2018-11-26T09:50:08.415Z,5.42
2018-11-26T09:52:36.776Z,5.47
2018-11-26T09:55:05.149Z,5.53
2018-11-26T09:57:33.522Z,5.48
2018-11-26T10:00:02.322Z,5.50
2018-11-26T10:02:30.812Z,5.59
2018-11-26T10:04:59.289Z,5.44
2018-11-26T10:07:27.629Z,5.44
2018-11-26T10:09:55.989Z,5.31
2018-11-26T10:12:24.281Z,5.24
2018-11-26T10:14:52.593Z,5.39
2018-11-26T10:17:21.189Z,5.38
2018-11-26T10:19:49.517Z,5.30
2018-11-26T10:22:18.148Z,5.48
2018-11-26T10:24:46.468Z,5.47
2018-11-26T10:27:14.801Z,5.51
2018-11-26T10:29:43.601Z,5.63
2018-11-26T10:32:12.080Z,5.49
2018-11-26T10:34:40.416Z,5.49
2018-11-26T10:37:08.753Z,5.63
2018-11-26T10:39:37.540Z,5.75
2018-11-26T10:42:05.841Z,5.74
2018-11-26T10:44:34.164Z,5.82
2018-11-26T10:47:02.464Z,5.86
2018-11-26T10:49:30.797Z,5.92
2018-11-26T10:51:59.088Z,6.16
2018-11-26T10:54:27.389Z,6.15
2018-11-26T10:56:55.688Z,6.31
2018-11-26T10:59:24.012Z,6.28
2018-11-26T11:01:57.504Z,6.26
2018-11-26T11:04:25.813Z,6.51
2018-11-26T11:06:55.829Z,6.14
2018-11-26T11:09:22.449Z,6.08
2018-11-26T11:11:50.748Z,6.21
2018-11-26T11:14:19.061Z,6.04
2018-11-26T11:16:47.395Z,6.08
2018-11-26T11:19:15.816Z,6.12
2018-11-26T11:21:44.280Z,6.31
2018-11-26T11:24:12.642Z,6.46
2018-11-26T11:26:41.237Z,6.53
2018-11-26T11:29:09.558Z,6.60
2018-11-26T11:31:37.910Z,6.57
2018-11-26T11:34:06.710Z,6.52
2018-11-26T11:36:35.057Z,6.74
2018-11-26T11:39:03.729Z,6.67
2018-11-26T11:41:34.448Z,6.54
2018-11-26T11:44:00.618Z,6.56
2018-11-26T11:46:29.110Z,6.61
2018-11-26T11:48:57.790Z,6.40
2018-11-26T11:51:26.594Z,6.43
2018-11-26T11:53:55.562Z,6.61
2018-11-26T11:56:24.073Z,6.59
2018-11-26T11:58:52.530Z,6.62
2018-11-26T12:01:21.051Z,6.78
2018-11-26T12:03:49.443Z,6.69
2018-11-26T12:06:18.062Z,6.83
2018-11-26T12:08:46.430Z,6.78
2018-11-26T12:11:14.850Z,6.91
2018-11-26T12:13:43.146Z,6.91
2018-11-26T12:16:11.529Z,6.69
2018-11-26T12:18:39.890Z,6.68
2018-11-26T12:21:08.208Z,6.61
2018-11-26T12:23:36.501Z,6.58
2018-11-26T12:26:04.949Z,6.36
2018-11-26T12:28:33.277Z,6.40
2018-11-26T12:31:01.624Z,6.31
2018-11-26T12:33:29.962Z,6.29
2018-11-26T12:35:58.297Z,6.17
2018-11-26T12:38:26.685Z,6.11
2018-11-26T12:40:55.197Z,6.19
2018-11-26T12:43:23.654Z,6.30
2018-11-26T12:45:52.641Z,6.23
2018-11-26T12:48:21.134Z,6.34
2018-11-26T12:50:49.494Z,6.66
2018-11-26T12:53:18.113Z,6.74
2018-11-26T12:55:46.602Z,6.77
2018-11-26T12:58:15.049Z,6.98
2018-11-26T13:00:43.561Z,6.79
2018-11-26T13:03:13.562Z,6.52
2018-11-26T13:05:42.077Z,6.74
2018-11-26T13:08:10.436Z,6.70
2018-11-26T13:10:39.046Z,6.78
2018-11-26T13:13:09.071Z,6.71
2018-11-26T13:15:37.369Z,6.70
2018-11-26T13:18:05.893Z,6.82
2018-11-26T13:20:34.209Z,6.58
2018-11-26T13:23:02.530Z,6.65
2018-11-26T13:25:33.298Z,6.44
2018-11-26T13:28:02.693Z,6.30
2018-11-26T13:30:35.393Z,6.40
2018-11-26T13:33:07.881Z,6.09
2018-11-26T13:35:36.258Z,6.13
2018-11-26T13:38:09.057Z,6.07
2018-11-26T13:40:37.442Z,6.11
2018-11-26T13:43:08.082Z,6.16
2018-11-26T13:45:37.998Z,6.17
2018-11-26T13:48:09.130Z,6.21
2018-11-26T13:50:38.993Z,6.19
2018-11-26T13:53:07.330Z,6.29
2018-11-26T13:55:35.698Z,6.10
2018-11-26T13:58:04.082Z,6.17
2018-11-26T14:00:32.467Z,6.18
2018-11-26T14:03:00.865Z,6.07
2018-11-26T14:05:29.192Z,5.97
2018-11-26T14:07:57.524Z,5.89
2018-11-26T14:10:27.061Z,5.88
2018-11-26T14:12:56.642Z,5.96
2018-11-26T14:15:25.010Z,5.98
2018-11-26T14:17:53.338Z,5.89
2018-11-26T14:20:21.674Z,5.83
2018-11-26T14:22:50.002Z,5.85
2018-11-26T14:25:18.887Z,5.96
2018-11-26T14:27:47.690Z,5.83
2018-11-26T14:30:20.026Z,5.93
2018-11-26T14:32:48.380Z,5.83
2018-11-26T14:35:16.745Z,5.71
2018-11-26T14:37:45.649Z,5.72
2018-11-26T14:40:19.085Z,5.63
2018-11-26T14:42:47.647Z,5.64
2018-11-26T14:45:15.745Z,5.57
2018-11-26T14:47:44.558Z,5.50
2018-11-26T14:50:13.866Z,5.50
2018-11-26T14:52:43.138Z,5.59
2018-11-26T14:55:14.710Z,5.54
2018-11-26T14:57:43.078Z,5.53
2018-11-26T15:00:13.181Z,5.49
2018-11-26T15:02:41.506Z,5.39
2018-11-26T15:05:10.194Z,5.33
2018-11-26T15:07:38.609Z,5.37
2018-11-26T15:10:14.190Z,5.31
2018-11-26T15:12:42.606Z,5.38
2018-11-26T15:15:12.864Z,5.36
2018-11-26T15:17:41.870Z,5.17
2018-11-26T15:20:18.124Z,5.30
2018-11-26T15:22:46.466Z,5.12
2018-11-26T15:25:17.090Z,5.07
2018-11-26T15:27:45.411Z,5.01
2018-11-26T15:30:14.802Z,5.00
2018-11-26T15:32:43.284Z,4.94
2018-11-26T15:35:14.661Z,4.90
2018-11-26T15:37:43.023Z,4.94
2018-11-26T15:40:12.321Z,4.95
2018-11-26T15:42:40.628Z,4.94
2018-11-26T15:45:25.789Z,4.95
2018-11-26T15:47:54.860Z,4.92
2018-11-26T15:50:23.204Z,5.02
2018-11-26T15:52:51.509Z,5.00
2018-11-26T15:55:20.723Z,5.02
2018-11-26T15:57:49.208Z,5.01
2018-11-26T16:00:21.455Z,5.03
2018-11-26T16:02:50.030Z,5.00
2018-11-26T16:05:21.398Z,4.94
2018-11-26T16:07:50.285Z,4.95
2018-11-26T16:10:18.611Z,5.02
2018-11-26T16:12:48.279Z,5.00
2018-11-26T16:15:18.895Z,4.95
2018-11-26T16:17:47.255Z,4.90
2018-11-26T16:20:16.889Z,4.99
2018-11-26T16:22:45.289Z,4.93
2018-11-26T16:25:14.876Z,4.80
2018-11-26T16:27:43.265Z,4.81
2018-11-26T16:30:13.874Z,4.77
2018-11-26T16:32:43.371Z,4.79
2018-11-26T16:35:13.128Z,4.78
2018-11-26T16:37:41.477Z,4.80
2018-11-26T16:40:14.884Z,4.78
2018-11-26T16:42:43.418Z,4.77
2018-11-26T16:45:16.311Z,4.65
2018-11-26T16:47:45.439Z,4.69
2018-11-26T16:50:14.693Z,4.65
2018-11-26T16:52:43.038Z,4.58
2018-11-26T16:55:13.389Z,4.55
2018-11-26T16:57:41.838Z,4.62
2018-11-26T17:00:13.653Z,4.64
2018-11-26T17:02:41.976Z,4.63
2018-11-26T17:05:12.214Z,4.53
2018-11-26T17:07:40.662Z,4.53
2018-11-26T17:10:09.591Z,4.37
2018-11-26T17:12:38.091Z,4.32
2018-11-26T17:15:10.586Z,4.28
2018-11-26T17:17:39.038Z,4.24
2018-11-26T17:20:09.574Z,4.23
2018-11-26T17:22:37.905Z,4.14
2018-11-26T17:25:08.121Z,4.16
2018-11-26T17:27:36.541Z,4.01
2018-11-26T17:30:11.212Z,4.01
2018-11-26T17:32:39.682Z,4.02
2018-11-26T17:35:09.186Z,4.08
2018-11-26T17:37:42.650Z,4.09
2018-11-26T17:40:10.685Z,4.15
2018-11-26T17:42:39.218Z,4.15
2018-11-26T17:45:09.583Z,4.16
2018-11-26T17:47:38.234Z,4.19
2018-11-26T17:50:10.789Z,4.14
2018-11-26T17:52:39.079Z,4.16
2018-11-26T17:55:08.370Z,4.08
2018-11-26T17:57:36.706Z,4.05
2018-11-26T18:00:08.710Z,4.11
2018-11-26T18:02:37.042Z,4.04
2018-11-26T18:05:07.670Z,3.99
2018-11-26T18:07:35.983Z,4.02
2018-11-26T18:10:04.818Z,4.10
2018-11-26T18:12:33.131Z,4.16
2018-11-26T18:15:01.450Z,4.23
2018-11-26T18:17:29.755Z,4.20
2018-11-26T18:19:58.107Z,4.20
2018-11-26T18:22:26.439Z,4.23
2018-11-26T18:24:54.763Z,4.19
2018-11-26T18:27:23.059Z,4.28
2018-11-26T18:29:51.379Z,4.24
2018-11-26T18:32:19.717Z,4.22
2018-11-26T18:34:48.126Z,4.21
2018-11-26T18:37:16.441Z,4.19
2018-11-26T18:39:44.818Z,4.14
2018-11-26T18:42:13.127Z,4.16
2018-11-26T18:44:41.484Z,4.20
2018-11-26T18:47:10.009Z,4.20
2018-11-26T18:49:38.491Z,4.16
2018-11-26T18:52:07.097Z,4.18
2018-11-26T18:54:35.466Z,4.07
2018-11-26T18:57:03.802Z,4.11
2018-11-26T18:59:32.214Z,4.20
2018-11-26T19:02:00.606Z,4.16
2018-11-26T19:04:29.027Z,4.13
2018-11-26T19:06:57.371Z,4.21
2018-11-26T19:09:25.843Z,4.18
2018-11-26T19:11:54.192Z,4.21
2018-11-26T19:14:23.966Z,4.19
2018-11-26T19:16:52.727Z,4.10
2018-11-26T19:19:21.079Z,4.05
2018-11-26T19:21:49.444Z,4.07
2018-11-26T19:24:18.021Z,4.05
2018-11-26T19:26:46.447Z,4.10
2018-11-26T19:29:14.798Z,4.04
2018-11-26T19:31:43.400Z,4.05
2018-11-26T19:34:11.746Z,4.07
2018-11-26T19:36:40.093Z,4.05
2018-11-26T19:39:09.362Z,4.00
2018-11-26T19:41:38.198Z,4.07
2018-11-26T19:44:09.730Z,3.98
2018-11-26T19:46:38.376Z,3.98
2018-11-26T19:49:06.740Z,4.05
2018-11-26T19:51:35.206Z,3.98
2018-11-26T19:54:04.126Z,3.96
2018-11-26T19:56:32.670Z,3.95
2018-11-26T19:59:01.058Z,3.95
2018-11-26T20:01:29.569Z,4.01
2018-11-26T20:04:15.923Z,4.02
2018-11-26T20:06:45.234Z,3.95
2018-11-26T20:09:13.709Z,3.95
2018-11-26T20:11:42.078Z,3.99
2018-11-26T20:14:10.402Z,3.95
2018-11-26T20:16:43.359Z,3.95
2018-11-26T20:19:11.951Z,3.91
2018-11-26T20:21:40.339Z,3.95
2018-11-26T20:24:08.842Z,3.92
2018-11-26T20:26:37.482Z,3.87
2018-11-26T20:29:06.242Z,3.93
2018-11-26T20:31:34.573Z,3.81
2018-11-26T20:34:02.907Z,4.10
2018-11-26T20:36:31.243Z,3.96
2018-11-26T20:38:59.551Z,3.98
2018-11-26T20:41:27.890Z,4.10
2018-11-26T20:43:56.214Z,3.98
2018-11-26T20:46:24.773Z,3.93
2018-11-26T20:48:53.226Z,3.93
2018-11-26T20:51:21.987Z,3.98
2018-11-26T20:53:50.706Z,3.93
2018-11-26T20:56:19.275Z,3.95
2018-11-26T20:58:48.174Z,3.99
2018-11-26T21:01:16.532Z,4.00
2018-11-26T21:03:44.878Z,3.92
2018-11-26T21:06:13.219Z,3.92
2018-11-26T21:08:41.603Z,3.93
2018-11-26T21:11:10.105Z,3.91
2018-11-26T21:13:38.439Z,4.03
2018-11-26T21:16:08.089Z,3.95
2018-11-26T21:18:36.403Z,3.90
2018-11-26T21:21:05.180Z,3.94
2018-11-26T21:23:33.962Z,3.93
2018-11-26T21:26:03.938Z,3.97
2018-11-26T21:28:32.257Z,3.90
2018-11-26T21:31:00.565Z,3.91
2018-11-26T21:33:28.902Z,4.06
2018-11-26T21:35:57.233Z,4.02
2018-11-26T21:38:26.477Z,3.94
2018-11-26T21:40:54.791Z,3.93
2018-11-26T21:43:23.133Z,3.99
2018-11-26T21:45:53.257Z,3.93
2018-11-26T21:48:21.586Z,3.95
2018-11-26T21:50:50.418Z,3.95
2018-11-26T21:53:38.214Z,3.95
2018-11-26T21:56:06.569Z,3.91
2018-11-26T21:58:36.215Z,3.85
2018-11-26T22:01:06.821Z,3.78
2018-11-26T22:03:35.194Z,3.72
2018-11-26T22:06:03.529Z,3.78
2018-11-26T22:08:32.320Z,3.68
2018-11-26T22:11:01.135Z,3.59
2018-11-26T22:13:29.803Z,3.53
2018-11-26T22:15:58.275Z,3.51
2018-11-26T22:18:26.693Z,3.50
2018-11-26T22:20:55.226Z,3.48
2018-11-26T22:23:23.559Z,3.39
2018-11-26T22:25:52.315Z,3.32
2018-11-26T22:28:20.589Z,3.32
2018-11-26T22:30:48.899Z,3.34
2018-11-26T22:33:17.321Z,3.30
2018-11-26T22:35:45.605Z,3.33
2018-11-26T22:38:14.123Z,3.38
2018-11-26T22:40:42.634Z,3.28
2018-11-26T22:43:10.998Z,3.25
2018-11-26T22:45:39.525Z,3.12
2018-11-26T22:48:11.142Z,3.15
2018-11-26T22:50:42.118Z,3.14
2018-11-26T22:53:10.510Z,3.13
2018-11-26T22:55:38.822Z,3.12
2018-11-26T22:58:09.349Z,3.08
2018-11-26T23:00:45.289Z,3.12
2018-11-26T23:03:15.093Z,3.08
2018-11-26T23:05:43.400Z,3.07
2018-11-26T23:08:11.701Z,2.98
2018-11-26T23:10:39.969Z,2.96
2018-11-26T23:13:08.921Z,2.92
2018-11-26T23:15:38.894Z,3.01
2018-11-26T23:18:06.991Z,2.94
2018-11-26T23:20:35.318Z,2.88
2018-11-26T23:23:03.632Z,2.94
2018-11-26T23:25:31.953Z,3.00
2018-11-26T23:28:00.681Z,2.98
2018-11-26T23:30:30.414Z,2.93
2018-11-26T23:33:01.513Z,2.96
2018-11-26T23:35:29.853Z,2.94
2018-11-26T23:37:58.177Z,2.93
2018-11-26T23:40:26.486Z,3.00
2018-11-26T23:42:54.761Z,2.94
2018-11-26T23:45:24.117Z,2.98
2018-11-26T23:47:52.407Z,2.97
2018-11-26T23:50:20.730Z,3.01
2018-11-26T23:52:49.058Z,2.93
2018-11-26T23:55:19.413Z,2.92
2018-11-26T23:57:47.745Z,2.80
